Beatty, Nevada Weather observations

Data are for observation ending at time listed.
 Day   Time    Ave.   Ave.  Ave.  Vector   Max.   Stn.    Total    Solar   Ave.  
  of    of     Air    Rel.  Wind   Wind    Wind   Baro.  Precip.   Rad.    Soil  
Year   Day     Temp.  Hum.  Speed  Dir.    Gust   Pres.                    Temp. 
2014   (PST)    F      %     mph   deg.    mph     mb.     in.     W/m2     F   
------------------------------------------------------------------------------
 351    8:40   41.4    85    1.4   211      2.6   900.6    0.00      15    47.8
 351    8:50   41.4    85    1.5   217      2.7   900.7    0.00      24    47.8
 351    9:00   41.7    85    0.5   181      1.4   900.8    0.00      30    47.8
 351    9:10   41.9    85    0.3   277      1.1   900.9    0.00      40    47.7
 351    9:20   41.9    84    1.0   239      2.3   901.1    0.00      40    47.7
 351    9:30   41.9    84    2.2   220      3.8   901.3    0.00      35    47.7
 351    9:40   42.0    84    2.4   214      3.5   901.4    0.00      29    47.7
 351    9:50   42.0    84    2.4   222      3.8   901.5    0.00      33    47.7
 351   10:00   42.2    84    2.0   175      3.1   901.5    0.00      39    47.7
 351   10:10   42.3    84    2.3   208      3.5   901.6    0.00      44    47.6
 351   10:20   42.3    84    1.9   196      3.7   901.6    0.00      45    47.6
 351   10:30   42.6    83    1.5   206      2.9   901.6    0.00      44    47.6
 351   10:40   42.9    82    2.0   201      3.7   901.6    0.00      48    47.6
 351   10:50   42.9    81    2.3   226      4.9   901.5    0.00      45    47.6
 351   11:00   43.0    81    2.3   213      4.2   901.4    0.00      63    47.6
 351   11:10   43.3    80    2.3   202      4.7   901.3    0.00      78    47.6
 351   11:20   43.3    81    2.8   205      4.9   901.1    0.00     104    47.6
 351   11:30   43.4    80    2.7   222      4.4   901.1    0.00      93    47.6
 351   11:40   43.4    80    3.9   200      6.4   901.1    0.00      75    47.6
 351   11:50   43.5    81    3.2   207      5.6   900.9    0.00      91    47.6
 351   12:00   43.8    80    3.5   208      6.4   900.8    0.00      78    47.6
 351   12:10   43.4    80    3.7   212      5.7   900.7    0.00      59    47.6
 351   12:20   43.5    81    3.1   208      5.9   900.7    0.00      77    47.6
 351   12:30   43.8    80    3.7   210      6.6   900.6    0.00      83    47.6
 351   12:40   43.8    80    3.8   227      7.4   900.6    0.00      73    47.6
 351   12:50   43.8    81    4.5   226      7.6   900.6    0.00     118    47.6
 351   13:00   43.8    82    4.5   232      9.2   900.6    0.00     129    47.6
 351   13:10   43.9    82    4.6   224      8.0   900.6    0.00     109    47.6
 351   13:20   43.9    82    4.1   226      6.8   900.6    0.00     103    47.6
 351   13:30   44.2    81    4.3   220      7.3   900.6    0.00      93    47.6
 351   13:40   44.1    81    5.1   226      8.5   900.5    0.00     114    47.6
 351   13:50   44.3    81    5.3   216      8.9   900.4    0.00     125    47.6
 351   14:00   44.2    82    5.8   215      8.2   900.4    0.00     104    47.6
 351   14:10   44.3    82    5.7   210      9.4   900.4    0.00     113    47.6
 351   14:20   44.1    82    5.8   214      9.0   900.4    0.00      92    47.6
 351   14:30   44.2    82    6.1   207     10.6   900.4    0.00      70    47.6
 351   14:40   44.1    82    6.0   217      9.9   900.4    0.00      53    47.6
 351   14:50   44.0    83    5.9   215      9.1   900.5    0.00      38    47.6
 351   15:00   43.8    84    5.9   214      9.3   900.6    0.00      32    47.6
 351   15:10   44.0    84    5.5   212      8.1   900.6    0.00      36    47.6
 351   15:20   43.9    83    5.6   220      9.1   900.6    0.00      28    47.6
 351   15:30   43.9    81    5.9   216      9.4   900.7    0.00      26    47.6
 351   15:40   43.9    80    6.5   214      9.3   900.7    0.00      25    47.6
 351   15:50   44.0    80    4.9   216      8.1   900.7    0.00      15    47.6
 351   16:00   44.1    80    4.6   212      7.2   900.9    0.00       6    47.6
 351   16:10   44.0    79    4.2   202      7.5   900.9    0.00       3    47.6
 351   16:20   43.8    80    3.4   204      6.3   901.0    0.00       3    47.7
 351   16:30   43.7    81    3.6   216      6.4   901.1    0.00       2    47.7
 351   16:40   43.5    82    3.7   222      5.9   901.1    0.00       0    47.7
 351   16:50   43.5    82    3.6   224      5.7   901.2    0.00       0    47.7
 351   17:00   43.5    83    2.5   221      4.0   901.3    0.00       0    47.7
 351   17:10   43.5    84    2.4   224      3.9   901.4    0.00       0    47.7
 351   17:20   43.5    84    1.0   213      2.8   901.5    0.00       0    47.7
 351   17:30   43.5    85    1.4   207      3.1   901.5    0.00       0    47.7
 351   17:40   43.3    86    2.0   222      4.5   901.7    0.00       0    47.7
 351   17:50   43.0    88    2.7   216      5.7   901.7    0.00       0    47.7
 351   18:00   42.8    89    1.4   191      3.4   901.9    0.00       0    47.7
 351   18:10   42.7    90    1.7   202      3.7   901.9    0.00       0    47.7
 351   18:20   42.5    91    1.7   216      3.8   902.0    0.00       0    47.7
 351   18:30   42.5    91    0.1   204      0.7   902.0    0.00       0    47.7
 351   18:40   42.4    91    0.0     0      0.0   902.1    0.00       0    47.7
 351   18:50   42.4    91    0.1   256      0.9   902.2    0.00       0    47.7
 351   19:00   42.5    91    0.2   258      1.0   902.2    0.00       0    47.7
 351   19:10   42.5    91    0.3   168      1.0   902.3    0.00       0    47.7
 351   19:20   42.6    91    0.3   157      1.7   902.4    0.00       0    47.7
 351   19:30   42.4    91    0.7   266      1.8   902.5    0.00       0    47.7
 351   19:40   42.4    90    1.2   237      2.3   902.4    0.00       0    47.7
 351   19:50   42.5    90    1.0   202      2.1   902.4    0.00       0    47.7
 351   20:00   42.6    90    1.1   180      2.1   902.4    0.00       0    47.8
 351   20:10   42.6    90    0.3   179      1.3   902.5    0.00       0    47.8
 351   20:20   42.5    90    0.5   282      1.8   902.6    0.00       0    47.8
 351   20:30   42.5    90    0.3   284      1.3   902.7    0.00       0    47.8
 351   20:40   42.5    90    0.7   303      1.6   902.7    0.00       0    47.8
 351   20:50   42.5    90    0.3   220      1.4   902.7    0.00       0    47.8
 351   21:00   42.5    90    0.3   296      0.9   902.7    0.00       0    47.8
 351   21:10   42.6    89    0.0     0      0.0   902.8    0.00       0    47.8
 351   21:20   42.6    89    0.0     0      0.0   902.9    0.00       0    47.8
 351   21:30   42.6    89    0.2     3      1.1   903.0    0.00       0    47.8
 351   21:40   42.6    89    0.8    26      2.3   903.1    0.00       0    47.8
 351   21:50   42.5    90    1.3    80      2.1   903.1    0.00       0    47.8
 351   22:00   42.5    91    1.2    75      2.1   903.2    0.00       0    47.8
 351   22:10   42.5    91    0.9    69      2.5   903.2    0.00       0    47.8
 351   22:20   42.5    91    1.4    35      3.3   903.3    0.00       0    47.8
 351   22:30   42.3    91    1.8    20      3.4   903.4    0.00       0    47.8
 351   22:40   42.1    92    1.4    29      3.8   903.3    0.00       0    47.8
 351   22:50   42.0    92    2.0   358      3.2   903.4    0.00       0    47.8
 351   23:00   41.9    92    1.7    25      3.4   903.4    0.00       0    47.8
 351   23:10   41.9    92    1.6    21      3.2   903.3    0.00       0    47.8
 351   23:20   42.0    92    1.4    58      3.0   903.2    0.00       0    47.8
 351   23:30   42.0    91    1.3    51      3.1   903.1    0.00       0    47.8
 351   23:40   42.1    91    1.1    65      2.9   903.1    0.00       0    47.8
 351   23:50   42.0    91    0.7    42      1.8   903.0    0.00       0    47.8
 352    0:00   42.0    90    1.4    24      2.7   903.0    0.02       0    47.8
 352    0:10   41.9    91    0.4   327      2.3   903.0    0.00       0    47.8
 352    0:20   41.9    91    0.9   352      2.5   903.0    0.00       0    47.8
 352    0:30   41.6    92    2.5   356      3.8   902.9    0.00       0    47.8
 352    0:40   41.4    92    2.2   354      3.4   902.9    0.00       0    47.8
 352    0:50   41.5    92    1.5     5      2.5   902.9    0.00       0    47.8
 352    1:00   41.5    93    1.0    31      2.6   902.9    0.00       0    47.8
 352    1:10   41.7    92    0.6    53      1.7   902.9    0.00       0    47.8
 352    1:20   41.5    92    0.3    49      1.6   902.9    0.00       0    47.8
 352    1:30   41.5    92    0.9    64      2.0   902.9    0.00       0    47.8
 352    1:40   41.4    91    0.7    47      2.0   902.9    0.00       0    47.8
 352    1:50   41.4    90    0.6    25      2.0   903.0    0.00       0    47.8
 352    2:00   41.2    90    1.6    16      2.9   903.1    0.00       0    47.8
 352    2:10   41.0    90    2.2    10      3.9   903.1    0.00       0    47.8
 352    2:20   40.6    91    2.7     3      4.3   903.1    0.00       0    47.8
 352    2:30   40.3    92    2.2    19      4.4   903.2    0.00       0    47.8
 352    2:40   40.2    92    2.1    12      3.7   903.3    0.00       0    47.8
 352    2:50   40.3    92    2.2    13      3.8   903.3    0.00       0    47.8
 352    3:00   40.5    91    2.2   358      3.9   903.4    0.00       0    47.8
 352    3:10   40.7    91    2.0   357      3.7   903.4    0.00       0    47.8
 352    3:20   40.9    90    1.8    40      4.2   903.5    0.00       0    47.8
 352    3:30   41.0    89    1.4    48      3.4   903.5    0.00       0    47.8
 352    3:40   41.0    89    1.7    31      4.2   903.5    0.00       0    47.8
 352    3:50   40.8    88    1.6    45      3.8   903.4    0.00       0    47.8
 352    4:00   40.6    88    1.5    55      3.6   903.5    0.00       0    47.8
 352    4:10   40.6    88    1.8    34      3.8   903.5    0.00       0    47.8
 352    4:20   40.4    88    2.1     0      3.8   903.5    0.00       0    47.8
 352    4:30   40.3    89    2.3     5      5.1   903.5    0.00       0    47.8
 352    4:40   40.0    89    3.3   358      4.8   903.7    0.00       0    47.8
 352    4:50   40.1    89    3.0   351      4.5   903.7    0.00       0    47.8
 352    5:00   40.2    90    2.1   358      3.7   903.7    0.00       0    47.8
 352    5:10   40.8    88    1.5    54      3.8   903.8    0.00       0    47.8
 352    5:20   40.9    87    2.6    17      5.2   903.9    0.00       0    47.8
 352    5:30   40.5    88    2.1    26      3.7   904.0    0.00       0    47.8
 352    5:40   40.5    88    2.1    27      4.6   904.1    0.00       0    47.8
 352    5:50   40.7    88    2.2    26      4.1   904.2    0.00       0    47.8
 352    6:00   40.9    87    1.3    36      3.7   904.3    0.00       0    47.7
 352    6:10   41.1    86    2.0    22      4.6   904.3    0.00       0    47.7
 352    6:20   40.6    87    3.3    20      5.3   904.4    0.00       0    47.7
 352    6:30   40.4    88    1.9    46      4.7   904.6    0.00       0    47.7
 352    6:40   40.7    86    2.1    14      5.6   904.6    0.00       0    47.7
 352    6:50   40.2    86    3.1   352      6.8   904.7    0.00       1    47.7
 352    7:00   39.5    86    3.6   358      6.1   904.7    0.00       3    47.7
 352    7:10   39.0    87    2.8   356      6.6   904.9    0.00       7    47.7
 352    7:20   38.7    88    3.5     2      6.9   905.0    0.00       9    47.7
 352    7:30   39.2    86    1.6    42      3.9   905.1    0.00       9    47.7
 352    7:40   39.4    85    3.1    25      5.8   905.2    0.00      12    47.6
 352    7:50   39.1    86    3.5    24      6.9   905.2    0.00      14    47.6
 352    8:00   39.4    85    2.8    21      6.2   905.3    0.00      15    47.6
 352    8:10   39.7    85    2.2    28      4.7   905.4    0.00      18    47.6
 352    8:20   40.3    84    2.0    49      5.1   905.6    0.00      42    47.6
 352    8:30   41.0    82    2.3    67      4.6   905.7    0.00     188    47.6

Return to Beatty, Nevada graphs page.


Western Regional Climate Center,wrcc@dri.edu